Terminal Aerodrome Forecast
Issued by NWS Detroit/Pontiac, MI

Home | Current Version | Previous Version | Text Only | Print | Product List | Glossary On
Versions: 1 2 3 4 5 6 7 8 9 10 11 12 13 14 15 16
000
FTUS43 KDTX 302103 AAA
TAFFNT
TAF AMD
KFNT 302103Z 3021/0118 03005KT P6SM SCT025 BKN040 OVC080
      TEMPO 3021/3024 3SM SHRA OVC025
     FM010300 30004KT P6SM BKN015
     FM010500 30006KT 5SM BR OVC007=

USA.gov is the U.S. government's official web portal to all federal, state and local government web resources and services.